Time;durP1;ratioP1;P1;durP2;ratioP2;P2;SDS_P1;SDS_P2;PMS_P1;PMS_P2;Temp;Humidity;BMP_temperature;BMP_pressure;BME280_temperature;BME280_humidity;BME280_pressure;Samples;Min_cycle;Max_cycle;Signal;HPM_P1;HPM_P2
2022/09/28 00:02:03;;;;;;;;;;;;;;;-144.99;100.00;52492.94;5045044;28;19983;-75
2022/09/28 00:04:30;;;;;;;;;;;;;;;-144.99;100.00;52507.19;5044090;28;19955;-76
2022/09/28 00:06:57;;;;;;;;;;;;;;;-144.99;100.00;52464.41;5043771;28;19963;-76
2022/09/28 00:09:24;;;;;;;;;;;;;;;-144.99;100.00;52505.16;5039834;28;19941;-75
2022/09/28 00:11:51;;;;;;;;;;;;;;;-144.99;100.00;52484.78;5040270;28;20033;-76
2022/09/28 00:14:17;;;;;;;;;;;;;;;-144.99;100.00;52499.06;5041987;28;19961;-78
2022/09/28 00:16:45;;;;;;;;;;;;;;;-144.99;100.00;52464.41;5041235;28;20156;-75
2022/09/28 00:19:13;;;;;;;;;;;;;;;-144.99;100.00;52448.09;5042176;28;20309;-75
2022/09/28 00:21:40;;;;;;;;;;;;;;;-144.99;100.00;52509.25;5044242;28;19925;-75
2022/09/28 00:24:12;;;;;;;;;;;;;;;-144.99;100.00;52511.28;5042880;28;19960;-75
2022/09/28 00:26:39;;;;;;;;;;;;;;;-144.99;100.00;52503.13;5048690;28;19972;-75
2022/09/28 00:29:07;;;;;;;;;;;;;;;-144.99;100.00;52533.69;5049065;28;19925;-75
2022/09/28 00:31:34;;;;;;;;;;;;;;;-144.99;100.00;52472.56;5050706;28;19948;-75
2022/09/28 00:34:01;;;;;;;;;;;;;;;-144.99;100.00;52492.94;5047614;28;19970;-75
2022/09/28 00:36:28;;;;;;;;;;;;;;;-144.99;100.00;52480.72;5045048;28;19947;-74
2022/09/28 00:38:55;;;;;;;;;;;;;;;-144.99;100.00;52497.00;5054370;28;19967;-74
2022/09/28 00:41:23;;;;;;;;;;;;;;;-144.99;100.00;52484.78;5051795;28;19933;-75
2022/09/28 00:43:49;;;;;;;;;;;;;;;-144.99;100.00;52517.41;5049673;28;20482;-74
2022/09/28 00:46:19;;;;;;;;;;;;;;;-144.99;100.00;52527.59;5048536;28;19956;-74
2022/09/28 00:48:48;;;;;;;;;;;;;;;-144.99;100.00;52460.31;5046049;28;19959;-74
2022/09/28 00:51:15;;;;;;;;;;;;;;;-144.99;100.00;52490.91;5042499;28;19942;-74
2022/09/28 00:53:43;;;;;;;;;;;;;;;-144.99;100.00;52484.78;5038089;28;20690;-75
2022/09/28 00:56:11;;;;;;;;;;;;;;;-144.99;100.00;52541.84;5043567;28;19945;-75
2022/09/28 00:58:41;;;;;;;;;;;;;;;-144.99;100.00;52501.09;5041501;28;19950;-75
2022/09/28 01:01:07;;;;;;;;;;;;;;;-144.99;100.00;52464.41;5039230;28;20042;-73
2022/09/28 01:03:34;;;;;;;;;;;;;;;-144.99;100.00;52503.13;5037880;28;19962;-73
2022/09/28 01:06:02;;;;;;;;;;;;;;;-144.99;100.00;52488.84;5045203;28;20372;-75
2022/09/28 01:08:29;;;;;;;;;;;;;;;-144.99;100.00;52517.41;5044015;28;19936;-75
2022/09/28 01:10:57;;;;;;;;;;;;;;;-144.99;100.00;52505.16;5044395;28;19940;-77
2022/09/28 01:13:24;;;;;;;;;;;;;;;-144.99;100.00;52478.66;5048705;28;19954;-77
2022/09/28 01:15:57;;;;;;;;;;;;;;;-144.99;100.00;52513.31;5050562;28;19951;-76
2022/09/28 01:18:28;;;;;;;;;;;;;;;-144.99;100.00;52539.81;5049989;28;20303;-77
2022/09/28 01:20:59;;;;;;;;;;;;;;;-144.99;100.00;52525.56;5048824;28;19939;-77
2022/09/28 01:23:39;;;;;;;;;;;;;;;-144.99;100.00;52525.56;5038337;28;19953;-77
2022/09/28 01:26:33;;;;;;;;;;;;;;;-144.99;100.00;52511.28;5052025;28;19955;-77
2022/09/28 01:29:04;;;;;;;;;;;;;;;-144.99;100.00;52511.28;5020381;28;19958;-76
2022/09/28 01:31:32;;;;;;;;;;;;;;;-144.99;100.00;52501.09;5041518;28;19970;-77
2022/09/28 01:34:00;;;;;;;;;;;;;;;-144.99;100.00;52501.09;5037048;28;19954;-78
2022/09/28 01:36:30;;;;;;;;;;;;;;;-144.99;100.00;52511.28;5052616;28;19937;-78
2022/09/28 01:39:00;;;;;;;;;;;;;;;-144.99;100.00;52505.16;5065838;28;20001;-78
2022/09/28 01:41:29;;;;;;;;;;;;;;;-144.99;100.00;52521.47;5062754;28;19935;-78
2022/09/28 01:43:56;;;;;;;;;;;;;;;-144.99;100.00;52517.41;5046652;28;19954;-76
2022/09/28 01:46:26;;;;;;;;;;;;;;;-144.99;100.00;52482.75;5045818;28;19931;-76
2022/09/28 01:48:56;;;;;;;;;;;;;;;-144.99;100.00;52517.41;5045788;28;20428;-76
2022/09/28 01:51:26;;;;;;;;;;;;;;;-144.99;100.00;52501.09;5042354;28;19945;-76
2022/09/28 01:53:57;;;;;;;;;;;;;;;-144.99;100.00;52505.16;5037868;28;20050;-77
2022/09/28 01:56:26;;;;;;;;;;;;;;;-144.99;100.00;52497.00;5047152;28;20292;-77
2022/09/28 01:58:54;;;;;;;;;;;;;;;-144.99;100.00;52525.56;5046993;28;19945;-76
2022/09/28 02:01:24;;;;;;;;;;;;;;;-144.99;100.00;52525.56;5042562;28;19935;-77
2022/09/28 02:03:56;;;;;;;;;;;;;;;-144.99;100.00;52503.13;5042041;28;19965;-76
2022/09/28 02:06:25;;;;;;;;;;;;;;;-144.99;100.00;52488.84;5047663;28;19958;-77
2022/09/28 02:08:53;;;;;;;;;;;;;;;-144.99;100.00;52554.09;5051222;28;19987;-77
2022/09/28 02:11:20;;;;;;;;;;;;;;;-144.99;100.00;52511.28;5051328;28;19941;-76
2022/09/28 02:13:49;;;;;;;;;;;;;;;-144.99;100.00;52480.72;5054801;28;20305;-76
2022/09/28 02:16:18;;;;;;;;;;;;;;;-144.99;100.00;52505.16;5052880;28;20011;-74
2022/09/28 02:18:45;;;;;;;;;;;;;;;-144.99;100.00;52484.78;5049616;28;20436;-75
2022/09/28 02:21:15;;;;;;;;;;;;;;;-144.99;100.00;52497.00;5050689;28;19948;-74
2022/09/28 02:23:46;;;;;;;;;;;;;;;-144.99;100.00;52521.47;5048737;28;19965;-76
2022/09/28 02:26:16;;;;;;;;;;;;;;;-144.99;100.00;52501.09;5052848;28;19943;-75
2022/09/28 02:28:43;;;;;;;;;;;;;;;-144.99;100.00;52558.16;5048691;28;19952;-75
2022/09/28 02:31:09;;;;;;;;;;;;;;;-144.99;100.00;52517.41;5050297;28;20427;-75
2022/09/28 02:33:37;;;;;;;;;;;;;;;-144.99;100.00;52509.25;5040964;28;19962;-77
2022/09/28 02:36:03;;;;;;;;;;;;;;;-144.99;100.00;52521.47;5060115;28;19942;-74
2022/09/28 02:38:31;;;;;;;;;;;;;;;-144.99;100.00;52513.31;5057799;28;19935;-75
2022/09/28 02:41:03;;;;;;;;;;;;;;;-144.99;100.00;52488.84;5045866;28;19937;-76
2022/09/28 02:43:34;;;;;;;;;;;;;;;-144.99;100.00;52513.31;5041950;28;19955;-75
2022/09/28 02:46:06;;;;;;;;;;;;;;;-144.99;100.00;52509.25;5042229;28;20409;-75
2022/09/28 02:48:47;;;;;;;;;;;;;;;-144.99;100.00;52517.41;5039857;28;20440;-76
2022/09/28 02:51:19;;;;;;;;;;;;;;;-144.99;100.00;52474.59;5039960;28;20421;-75
2022/09/28 02:53:55;;;;;;;;;;;;;;;-144.99;100.00;52513.31;5038833;28;19953;-75
2022/09/28 02:56:32;;;;;;;;;;;;;;;-144.99;100.00;52480.72;5040836;28;19954;-75
2022/09/28 02:59:04;;;;;;;;;;;;;;;-144.99;100.00;52501.09;5043790;28;19939;-75
2022/09/28 03:01:34;;;;;;;;;;;;;;;-144.99;100.00;52537.78;5040568;28;19945;-73
2022/09/28 03:04:06;;;;;;;;;;;;;;;-144.99;100.00;52517.41;5041886;28;20174;-74
2022/09/28 03:06:37;;;;;;;;;;;;;;;-144.99;100.00;52476.63;5039416;28;19953;-75
2022/09/28 03:09:08;;;;;;;;;;;;;;;-144.99;100.00;52550.00;5050376;28;19935;-74
2022/09/28 03:11:37;;;;;;;;;;;;;;;-144.99;100.00;52501.09;5041096;28;19943;-74
2022/09/28 03:14:04;;;;;;;;;;;;;;;-144.99;100.00;52472.56;5049410;28;20042;-75
2022/09/28 03:16:31;;;;;;;;;;;;;;;-144.99;100.00;52509.25;5046967;28;19944;-76
2022/09/28 03:18:58;;;;;;;;;;;;;;;-144.99;100.00;52509.25;5033464;28;20412;-74
2022/09/28 03:21:24;;;;;;;;;;;;;;;-144.99;100.00;52511.28;5040880;28;20031;-74
2022/09/28 03:23:51;;;;;;;;;;;;;;;-144.99;100.00;52517.41;5040179;28;20428;-75
2022/09/28 03:26:19;;;;;;;;;;;;;;;-144.99;100.00;52513.31;5043937;28;20325;-76
2022/09/28 03:28:45;;;;;;;;;;;;;;;-144.99;100.00;52537.78;5041221;28;20023;-75
2022/09/28 03:31:11;;;;;;;;;;;;;;;-144.99;100.00;52501.09;5041958;28;19936;-76
2022/09/28 03:33:38;;;;;;;;;;;;;;;-144.99;100.00;52472.56;5047747;28;19974;-75
2022/09/28 03:36:07;;;;;;;;;;;;;;;-144.99;100.00;52533.69;5057811;28;19964;-74
2022/09/28 03:38:33;;;;;;;;;;;;;;;-144.99;100.00;52492.94;5039834;28;20033;-73
2022/09/28 03:41:00;;;;;;;;;;;;;;;-144.99;100.00;52529.63;5037617;28;20403;-78
2022/09/28 03:43:29;;;;;;;;;;;;;;;-144.99;100.00;52529.63;5045107;28;19952;-78
2022/09/28 03:45:56;;;;;;;;;;;;;;;-144.99;100.00;52560.19;5043622;28;20408;-78
2022/09/28 03:48:24;;;;;;;;;;;;;;;-144.99;100.00;52541.84;5041479;28;19958;-77
2022/09/28 03:50:52;;;;;;;;;;;;;;;-144.99;100.00;52509.25;5041097;28;19950;-78
2022/09/28 03:53:19;;;;;;;;;;;;;;;-144.99;100.00;52513.31;5035462;28;20349;-77
2022/09/28 03:55:45;;;;;;;;;;;;;;;-144.99;100.00;52537.78;5036422;28;20060;-76
2022/09/28 03:58:11;;;;;;;;;;;;;;;-144.99;100.00;52511.28;5037612;28;20398;-76
2022/09/28 04:00:39;;;;;;;;;;;;;;;-144.99;100.00;52503.13;5035423;28;19937;-76
2022/09/28 04:03:28;;;;;;;;;;;;;;;-144.99;100.00;52480.72;5040541;28;19943;-75
2022/09/28 04:05:54;;;;;;;;;;;;;;;-144.99;100.00;52505.16;5043597;28;20316;-76
2022/09/28 04:08:20;;;;;;;;;;;;;;;-144.99;100.00;52509.25;5039595;28;19962;-75
2022/09/28 04:10:47;;;;;;;;;;;;;;;-144.99;100.00;52497.00;5040393;28;19946;-76
2022/09/28 04:13:13;;;;;;;;;;;;;;;-144.99;100.00;52484.78;5044244;28;19948;-76
2022/09/28 04:15:41;;;;;;;;;;;;;;;-144.99;100.00;52521.47;5049041;28;19953;-74
2022/09/28 04:18:09;;;;;;;;;;;;;;;-144.99;100.00;52484.78;5043206;28;20400;-76
2022/09/28 04:20:35;;;;;;;;;;;;;;;-144.99;100.00;52480.72;5048797;28;20099;-76
2022/09/28 04:23:01;;;;;;;;;;;;;;;-144.99;100.00;52513.31;5039807;28;19935;-75
2022/09/28 04:25:30;;;;;;;;;;;;;;;-144.99;100.00;52525.56;5066987;22;19968;-76
2022/09/28 04:30:41;;;;;;;;;;;;;;;-144.99;100.00;52501.09;5044488;28;20001;-76
2022/09/28 04:33:08;;;;;;;;;;;;;;;-144.99;100.00;52517.41;5041146;28;19938;-77
2022/09/28 04:35:34;;;;;;;;;;;;;;;-144.99;100.00;52460.31;5038014;28;19959;-75
2022/09/28 04:38:01;;;;;;;;;;;;;;;-144.99;100.00;52505.16;5040700;28;19967;-78
2022/09/28 04:40:27;;;;;;;;;;;;;;;-144.99;100.00;52545.94;5039710;28;19993;-76
2022/09/28 04:42:54;;;;;;;;;;;;;;;-144.99;100.00;52480.72;5047610;28;19950;-77
2022/09/28 04:45:20;;;;;;;;;;;;;;;-144.99;100.00;52482.75;5053361;28;19956;-77
2022/09/28 04:47:48;;;;;;;;;;;;;;;-144.99;100.00;52492.94;5046359;28;19961;-75
2022/09/28 04:50:14;;;;;;;;;;;;;;;-144.99;100.00;52525.56;5046015;28;19948;-74
2022/09/28 04:52:41;;;;;;;;;;;;;;;-144.99;100.00;52472.56;5046467;28;20293;-71
2022/09/28 04:55:08;;;;;;;;;;;;;;;-144.99;100.00;52490.91;5047556;28;19954;-74
2022/09/28 04:57:34;;;;;;;;;;;;;;;-144.99;100.00;52505.16;5042577;28;19939;-75
2022/09/28 05:00:01;;;;;;;;;;;;;;;-144.99;100.00;52488.84;5046098;28;19947;-76
2022/09/28 05:02:28;;;;;;;;;;;;;;;-144.99;100.00;52482.75;5058089;28;20289;-77
2022/09/28 05:04:57;;;;;;;;;;;;;;;-144.99;100.00;52521.47;4359023;28;10000816;-78
2022/09/28 05:07:24;;;;;;;;;;;;;;;-144.99;100.00;52501.09;5066420;28;19955;-75
2022/09/28 05:09:50;;;;;;;;;;;;;;;-144.99;100.00;52488.84;5067319;28;20450;-75
2022/09/28 05:12:16;;;;;;;;;;;;;;;-144.99;100.00;52499.06;5057733;28;20311;-77
2022/09/28 05:14:43;;;;;;;;;;;;;;;-144.99;100.00;52507.19;5051524;28;19962;-77
2022/09/28 05:17:09;;;;;;;;;;;;;;;-144.99;100.00;52521.47;5050778;28;19950;-77
2022/09/28 05:19:36;;;;;;;;;;;;;;;-144.99;100.00;52478.66;5061856;28;19961;-78
2022/09/28 05:22:06;;;;;;;;;;;;;;;-144.99;100.00;52492.94;5051996;28;19946;-76
2022/09/28 05:24:32;;;;;;;;;;;;;;;-144.99;100.00;52501.09;5046223;28;20415;-77
2022/09/28 05:26:58;;;;;;;;;;;;;;;-144.99;100.00;52507.19;5044342;28;19980;-76
2022/09/28 05:29:25;;;;;;;;;;;;;;;-144.99;100.00;52480.72;5056702;28;20378;-77
2022/09/28 05:31:51;;;;;;;;;;;;;;;-144.99;100.00;52521.47;5044412;28;20032;-79
2022/09/28 05:34:18;;;;;;;;;;;;;;;-144.99;100.00;52513.31;5048541;28;19946;-76
2022/09/28 05:36:44;;;;;;;;;;;;;;;-144.99;100.00;52525.56;5045960;28;19971;-76
2022/09/28 05:39:12;;;;;;;;;;;;;;;-144.99;100.00;52519.44;5039570;28;19967;-75
2022/09/28 05:41:38;;;;;;;;;;;;;;;-144.99;100.00;52517.41;5054731;28;20042;-74
2022/09/28 05:44:05;;;;;;;;;;;;;;;-144.99;100.00;52505.16;5049930;28;19982;-73
2022/09/28 05:46:31;;;;;;;;;;;;;;;-144.99;100.00;52488.84;5048441;28;19960;-78
2022/09/28 05:48:58;;;;;;;;;;;;;;;-144.99;100.00;52490.91;5053239;28;19956;-79
2022/09/28 05:51:25;;;;;;;;;;;;;;;-144.99;100.00;52492.94;5052759;28;20465;-79
2022/09/28 05:53:53;;;;;;;;;;;;;;;-144.99;100.00;52501.09;5043523;28;19953;-77
2022/09/28 05:56:21;;;;;;;;;;;;;;;-144.99;100.00;52499.06;5047880;28;20050;-75
2022/09/28 05:58:47;;;;;;;;;;;;;;;-144.99;100.00;52472.56;5044808;28;19943;-75
2022/09/28 06:01:14;;;;;;;;;;;;;;;-144.99;100.00;52458.28;5064073;28;19983;-80
2022/09/28 06:03:40;;;;;;;;;;;;;;;-144.99;100.00;52517.41;5040781;28;19956;-79
2022/09/28 06:06:06;;;;;;;;;;;;;;;-144.99;100.00;52480.72;5047169;28;20300;-79
2022/09/28 06:08:33;;;;;;;;;;;;;;;-144.99;100.00;52488.84;5038222;28;19960;-78
2022/09/28 06:11:00;;;;;;;;;;;;;;;-144.99;100.00;52476.63;5049279;28;19948;-78
2022/09/28 06:13:28;;;;;;;;;;;;;;;-144.99;100.00;52497.00;5042792;28;20410;-75
2022/09/28 06:15:55;;;;;;;;;;;;;;;-144.99;100.00;52509.25;5046701;28;19962;-77
2022/09/28 06:18:21;;;;;;;;;;;;;;;-144.99;100.00;52505.16;5035824;28;19951;-74
2022/09/28 06:20:47;;;;;;;;;;;;;;;-144.99;100.00;52452.16;5056779;28;19943;-76
2022/09/28 06:23:14;;;;;;;;;;;;;;;-144.99;100.00;52497.00;5055354;28;19929;-76
2022/09/28 06:25:40;;;;;;;;;;;;;;;-144.99;100.00;52468.47;5069312;28;19965;-73
2022/09/28 06:28:09;;;;;;;;;;;;;;;-144.99;100.00;52480.72;5049297;28;19961;-76
2022/09/28 06:30:37;;;;;;;;;;;;;;;-144.99;100.00;52464.41;5050550;28;19943;-77
2022/09/28 06:33:04;;;;;;;;;;;;;;;-144.99;100.00;52492.94;5057705;28;20327;-77
2022/09/28 06:35:31;;;;;;;;;;;;;;;-144.99;100.00;52501.09;5046555;28;19983;-76
2022/09/28 06:37:58;;;;;;;;;;;;;;;-144.99;100.00;52460.31;5045439;28;19972;-77
2022/09/28 06:40:24;;;;;;;;;;;;;;;-144.99;100.00;52450.13;5049005;28;20344;-74
2022/09/28 06:42:57;;;;;;;;;;;;;;;-144.99;100.00;52470.50;5050829;28;19943;-75
2022/09/28 06:45:24;;;;;;;;;;;;;;;-144.99;100.00;52456.25;5046818;28;19967;-77
2022/09/28 06:47:57;;;;;;;;;;;;;;;-144.99;100.00;52448.09;5046798;28;20078;-76
2022/09/28 06:50:23;;;;;;;;;;;;;;;-144.99;100.00;52452.16;5048433;28;19944;-76
2022/09/28 06:52:51;;;;;;;;;;;;;;;-144.99;100.00;52486.81;5052787;28;19946;-77
2022/09/28 06:55:17;;;;;;;;;;;;;;;-144.99;100.00;52464.41;4696915;28;9999664;-78
2022/09/28 06:57:43;;;;;;;;;;;;;;;-144.99;100.00;52444.03;5044367;28;19952;-76
2022/09/28 07:00:10;;;;;;;;;;;;;;;-144.99;100.00;52431.78;4694662;28;10000165;-74
2022/09/28 07:02:37;;;;;;;;;;;;;;;-144.99;100.00;52450.13;5051816;28;19937;-74
2022/09/28 07:05:06;;;;;;;;;;;;;;;-144.99;100.00;52419.56;5044924;28;19991;-75
2022/09/28 07:07:33;;;;;;;;;;;;;;;-144.99;100.00;52435.88;5044039;28;19943;-74
2022/09/28 07:09:59;;;;;;;;;;;;;;;-144.99;100.00;52478.66;5051285;28;19941;-73
2022/09/28 07:12:26;;;;;;;;;;;;;;;-144.99;100.00;52450.13;5045501;28;19940;-76
2022/09/28 07:14:55;;;;;;;;;;;;;;;-144.99;100.00;52464.41;5054548;28;19965;-73
2022/09/28 07:17:21;;;;;;;;;;;;;;;-144.99;100.00;52464.41;5037094;28;19960;-73
2022/09/28 07:19:51;;;;;;;;;;;;;;;-144.99;100.00;52431.78;5046433;28;20031;-73
2022/09/28 07:22:19;;;;;;;;;;;;;;;-144.99;100.00;52439.94;5046423;28;19977;-74
2022/09/28 07:24:46;;;;;;;;;;;;;;;-144.99;100.00;52403.25;5052842;28;19966;-74
2022/09/28 07:27:13;;;;;;;;;;;;;;;-144.99;100.00;52431.78;5044736;28;20218;-73
2022/09/28 07:29:39;;;;;;;;;;;;;;;-144.99;100.00;52452.16;5045290;28;19964;-73
2022/09/28 07:32:06;;;;;;;;;;;;;;;-144.99;100.00;52429.75;5051614;28;19988;-72
2022/09/28 07:34:36;;;;;;;;;;;;;;;-144.99;100.00;52452.16;5045037;28;20459;-75
2022/09/28 07:37:03;;;;;;;;;;;;;;;-144.99;100.00;52468.47;5045242;28;20008;-75
2022/09/28 07:39:30;;;;;;;;;;;;;;;-144.99;100.00;52460.31;5039518;28;19939;-75
2022/09/28 07:41:56;;;;;;;;;;;;;;;-144.99;100.00;52429.75;5042512;28;19939;-74
2022/09/28 07:44:22;;;;;;;;;;;;;;;-144.99;100.00;52444.03;5055669;28;19941;-75
2022/09/28 07:46:49;;;;;;;;;;;;;;;-144.99;100.00;52415.47;5049822;28;20378;-74
2022/09/28 07:49:18;;;;;;;;;;;;;;;-144.99;100.00;52431.78;5044707;28;20009;-74
2022/09/28 07:51:44;;;;;;;;;;;;;;;-144.99;100.00;52468.47;5050137;28;19948;-74
2022/09/28 07:54:11;;;;;;;;;;;;;;;-144.99;100.00;52435.88;5052586;28;20170;-73
2022/09/28 07:56:38;;;;;;;;;;;;;;;-144.99;100.00;52480.72;5048556;28;20009;-75
2022/09/28 07:59:05;;;;;;;;;;;;;;;-144.99;100.00;52423.63;5044126;28;20505;-73
2022/09/28 08:01:31;;;;;;;;;;;;;;;-144.99;100.00;52464.41;5041886;28;19952;-75
2022/09/28 08:03:57;;;;;;;;;;;;;;;-144.99;100.00;52466.44;5048108;28;20051;-75
2022/09/28 08:06:24;;;;;;;;;;;;;;;-144.99;100.00;52433.81;5047209;28;20395;-76
2022/09/28 08:08:51;;;;;;;;;;;;;;;-144.99;100.00;52423.63;5042580;28;20042;-75
2022/09/28 08:11:18;;;;;;;;;;;;;;;-144.99;99.39;52484.78;5043424;28;20539;-76
2022/09/28 08:13:47;;;;;;;;;;;;;;;-144.99;98.89;52444.03;5046485;28;20043;-78
2022/09/28 08:16:13;;;;;;;;;;;;;;;-144.99;98.51;52427.72;5050254;28;20056;-75
2022/09/28 08:18:39;;;;;;;;;;;;;;;-144.99;99.39;52458.28;5054572;28;19941;-75
2022/09/28 08:23:50;;;;;;;;;;;;;;;-144.99;99.64;52415.47;5046514;28;19983;-76
2022/09/28 08:26:17;;;;;;;;;;;;;;;-144.99;98.66;52407.31;5047886;28;19928;-76
2022/09/28 08:28:43;;;;;;;;;;;;;;;-144.99;97.27;52403.25;5043627;28;19966;-77
2022/09/28 08:31:11;;;;;;;;;;;;;;;-144.99;95.44;52448.09;5048732;28;19945;-78
2022/09/28 08:33:37;;;;;;;;;;;;;;;-144.99;94.84;52439.94;5043355;28;20396;-75
2022/09/28 08:36:04;;;;;;;;;;;;;;;-144.99;94.26;52435.88;5044054;28;19963;-79
2022/09/28 08:38:31;;;;;;;;;;;;;;;-144.99;93.52;52419.56;5038459;28;19982;-76
2022/09/28 08:41:11;;;;;;;;;;;;;;;-144.99;92.86;52395.09;5044316;28;19945;-74
2022/09/28 08:43:56;;;;;;;;;;;;;;;-144.99;92.05;52370.63;5038374;28;19965;-74
2022/09/28 08:46:26;;;;;;;;;;;;;;;-144.99;88.38;52366.56;5050020;28;20409;-74
2022/09/28 08:48:54;;;;;;;;;;;;;;;-144.99;83.06;52435.88;5042703;28;19936;-76
2022/09/28 08:51:22;;;;;;;;;;;;;;;-144.99;80.34;52350.25;5046054;28;19941;-75
2022/09/28 08:53:53;;;;;;;;;;;;;;;-144.99;79.76;52386.94;5047634;28;20150;-75
2022/09/28 08:56:26;;;;;;;;;;;;;;;-144.99;78.61;52368.59;5051866;28;19943;-73
2022/09/28 08:58:55;;;;;;;;;;;;;;;-144.99;77.77;52358.41;5044333;28;19947;-70
2022/09/28 09:01:23;;;;;;;;;;;;;;;-144.99;76.79;52325.81;5043812;28;19948;-73
2022/09/28 09:03:51;;;;;;;;;;;;;;;-144.99;74.79;52327.84;5041247;28;19947;-74
2022/09/28 09:06:20;;;;;;;;;;;;;;;-144.99;73.60;52374.72;5052840;28;19985;-77
2022/09/28 09:08:56;;;;;;;;;;;;;;;-144.99;71.34;52295.22;5051495;28;19959;-74
2022/09/28 09:11:28;;;;;;;;;;;;;;;-144.99;64.94;52297.25;5041195;28;20004;-73
2022/09/28 09:14:05;;;;;;;;;;;;;;;-144.99;61.80;52362.50;5042247;28;19943;-74
2022/09/28 09:16:35;;;;;;;;;;;;;;;-144.99;60.93;52356.38;5037694;28;19967;-77
2022/09/28 09:19:09;;;;;;;;;;;;;;;-144.99;59.10;52374.72;5042918;28;19939;-75
2022/09/28 09:21:39;;;;;;;;;;;;;;;-144.99;60.20;52372.69;5059468;28;19996;-77
2022/09/28 09:24:14;;;;;;;;;;;;;;;-144.99;62.59;52382.88;5051999;28;20357;-76
2022/09/28 09:26:41;;;;;;;;;;;;;;;-144.99;62.29;52374.72;5044692;28;19973;-75
2022/09/28 09:29:21;;;;;;;;;;;;;;;-144.99;60.95;52386.94;5047521;28;20373;-75
2022/09/28 09:31:54;;;;;;;;;;;;;;;-144.99;60.98;52346.19;5056332;28;19954;-72
2022/09/28 09:34:34;;;;;;;;;;;;;;;-144.99;61.11;52374.72;5050568;28;20340;-76
2022/09/28 09:37:10;;;;;;;;;;;;;;;-144.99;62.34;52368.59;5053634;28;19924;-75
2022/09/28 09:39:44;;;;;;;;;;;;;;;-144.99;62.50;52358.41;5048392;28;19947;-75
2022/09/28 09:42:22;;;;;;;;;;;;;;;-144.99;60.74;52362.50;5047487;28;19949;-75
2022/09/28 09:44:58;;;;;;;;;;;;;;;-144.99;59.81;52358.41;5046659;28;19934;-75
2022/09/28 09:47:29;;;;;;;;;;;;;;;-144.99;57.57;52313.56;5058671;28;20352;-75
2022/09/28 09:50:01;;;;;;;;;;;;;;;-144.99;54.58;52364.53;5068493;28;19977;-76
2022/09/28 09:52:29;;;;;;;;;;;;;;;-144.99;52.84;52317.66;5052719;28;19950;-76
2022/09/28 09:54:59;;;;;;;;;;;;;;;-144.99;53.06;52327.84;5045606;28;20035;-74
2022/09/28 09:57:27;;;;;;;;;;;;;;;-144.99;54.12;52329.88;5058830;28;19981;-75
2022/09/28 09:59:55;;;;;;;;;;;;;;;-144.99;50.18;52309.50;5055705;28;19967;-76
2022/09/28 10:02:23;;;;;;;;;;;;;;;-144.99;48.68;52268.72;5051650;28;20425;-76
2022/09/28 10:04:51;;;;;;;;;;;;;;;-144.99;46.57;52260.56;5051486;28;19973;-77
2022/09/28 10:07:22;;;;;;;;;;;;;;;-144.99;45.97;52268.72;5048505;28;19964;-77
2022/09/28 10:09:50;;;;;;;;;;;;;;;-144.99;44.97;52301.34;5045354;28;19971;-78
2022/09/28 10:12:19;;;;;;;;;;;;;;;-144.99;44.83;52256.50;5045401;28;19947;-73
2022/09/28 10:14:46;;;;;;;;;;;;;;;-144.99;44.41;52289.13;5046741;28;20430;-76
2022/09/28 10:17:15;;;;;;;;;;;;;;;-144.99;44.59;52276.88;5049272;28;20487;-78
2022/09/28 10:19:42;;;;;;;;;;;;;;;-144.99;45.15;52338.03;5052183;28;20424;-75
2022/09/28 10:22:11;;;;;;;;;;;;;;;-144.99;44.42;52313.56;5045490;28;19943;-77
2022/09/28 10:24:41;;;;;;;;;;;;;;;-144.99;45.83;52311.53;4695268;28;10000077;-77
2022/09/28 10:27:11;;;;;;;;;;;;;;;-144.99;46.66;52358.41;5038070;22;19986;-76
2022/09/28 10:29:41;;;;;;;;;;;;;;;-144.99;46.55;52309.50;5021468;28;19965;-75
2022/09/28 10:32:17;;;;;;;;;;;;;;;-144.99;45.01;52360.44;5024639;28;19950;-75
2022/09/28 10:34:44;;;;;;;;;;;;;;;-144.99;45.52;52321.72;5023889;28;20297;-75
2022/09/28 10:37:11;;;;;;;;;;;;;;;-144.99;47.06;52329.88;5021698;28;20452;-75
2022/09/28 10:39:41;;;;;;;;;;;;;;;-144.99;48.29;52344.16;5021523;28;19974;-75
2022/09/28 10:42:11;;;;;;;;;;;;;;;-144.99;49.29;52374.72;5021158;28;20454;-75
2022/09/28 10:44:48;;;;;;;;;;;;;;;-144.99;47.47;52352.28;5024323;28;20374;-75
2022/09/28 10:47:16;;;;;;;;;;;;;;;-144.99;46.98;52329.88;5021568;28;20431;-76
2022/09/28 10:49:44;;;;;;;;;;;;;;;-144.99;47.86;52372.69;5021902;28;20011;-76
2022/09/28 10:52:25;;;;;;;;;;;;;;;-144.99;49.97;52399.19;5024575;28;20039;-76
2022/09/28 10:54:53;;;;;;;;;;;;;;;-144.99;49.58;52427.72;5022689;28;20160;-76
2022/09/28 10:57:27;;;;;;;;;;;;;;;-144.99;50.49;52342.09;5012730;28;19968;-75
2022/09/28 10:59:53;;;;;;;;;;;;;;;-144.99;49.82;52305.41;5020547;28;19944;-75
2022/09/28 11:02:21;;;;;;;;;;;;;;;-144.99;48.82;52338.03;5018716;28;19953;-75
2022/09/28 11:04:51;;;;;;;;;;;;;;;-144.99;47.92;52309.50;5032579;28;19979;-75
2022/09/28 11:07:19;;;;;;;;;;;;;;;-144.99;47.21;52321.72;5040563;28;19959;-76
2022/09/28 11:09:47;;;;;;;;;;;;;;;-144.99;46.82;52236.13;5041990;28;20228;-75
2022/09/28 11:12:15;;;;;;;;;;;;;;;-144.99;44.84;52215.75;5037273;28;20062;-76
2022/09/28 11:14:43;;;;;;;;;;;;;;;-144.99;43.43;52177.00;5020436;28;20046;-76
2022/09/28 11:17:16;;;;;;;;;;;;;;;-144.99;41.47;52183.13;5024442;28;19959;-76
2022/09/28 11:19:43;;;;;;;;;;;;;;;-144.99;39.65;52146.44;5013800;28;19933;-75
2022/09/28 11:22:20;;;;;;;;;;;;;;;-144.99;39.22;52187.19;5024050;28;19932;-75
2022/09/28 11:24:46;;;;;;;;;;;;;;;-144.99;37.64;52170.91;5021964;28;20155;-75
2022/09/28 11:27:20;;;;;;;;;;;;;;;-144.99;37.60;52211.66;5025374;28;19940;-76
2022/09/28 11:29:55;;;;;;;;;;;;;;;-144.99;37.60;52146.44;5022606;28;19936;-76
2022/09/28 11:32:22;;;;;;;;;;;;;;;-144.99;38.31;52248.34;5024030;28;19933;-77
2022/09/28 11:34:50;;;;;;;;;;;;;;;-144.99;39.02;52270.78;5023134;28;20066;-76
2022/09/28 11:37:26;;;;;;;;;;;;;;;-144.99;39.36;52260.56;5023709;28;19929;-76
2022/09/28 11:39:58;;;;;;;;;;;;;;;-144.99;41.02;52303.38;5012622;28;19929;-76
2022/09/28 11:42:30;;;;;;;;;;;;;;;-144.99;41.24;52378.78;5024242;28;19939;-76
2022/09/28 11:45:00;;;;;;;;;;;;;;;-144.99;42.86;52378.78;5016356;28;19935;-77
2022/09/28 11:47:36;;;;;;;;;;;;;;;-144.99;43.77;52372.69;5024841;28;19960;-77
2022/09/28 11:50:05;;;;;;;;;;;;;;;-144.99;44.44;52331.91;5014146;28;19955;-75
2022/09/28 11:52:36;;;;;;;;;;;;;;;-144.99;44.51;52350.25;5022546;28;19943;-77
2022/09/28 11:55:05;;;;;;;;;;;;;;;-144.99;44.25;52382.88;5017891;28;19948;-77
2022/09/28 11:57:35;;;;;;;;;;;;;;;-144.99;45.13;52395.09;5019009;28;19962;-75
2022/09/28 12:00:05;;;;;;;;;;;;;;;-144.99;45.70;52354.34;5022327;28;19939;-76
2022/09/28 12:02:35;;;;;;;;;;;;;;;-144.99;44.44;52321.72;5015344;28;20489;-76
2022/09/28 12:05:08;;;;;;;;;;;;;;;-144.99;44.62;52291.16;5022908;28;19944;-75
2022/09/28 12:07:38;;;;;;;;;;;;;;;-144.99;43.22;52289.13;5025886;28;20388;-76
2022/09/28 12:10:11;;;;;;;;;;;;;;;-144.99;42.81;52309.50;5024889;28;19929;-76
2022/09/28 12:12:40;;;;;;;;;;;;;;;-144.99;42.74;52301.34;5013845;28;19936;-76
2022/09/28 12:15:14;;;;;;;;;;;;;;;-144.99;41.64;52268.72;5020123;28;19936;-76
2022/09/28 12:17:43;;;;;;;;;;;;;;;-144.99;42.33;52346.19;5017109;28;19930;-76
2022/09/28 12:20:14;;;;;;;;;;;;;;;-144.99;43.37;52362.50;5011972;28;20365;-76
2022/09/28 12:22:44;;;;;;;;;;;;;;;-144.99;44.78;52427.72;5022349;28;20020;-76
2022/09/28 12:25:14;;;;;;;;;;;;;;;-144.99;45.83;52435.88;5022323;28;19925;-77
2022/09/28 12:27:42;;;;;;;;;;;;;;;-144.99;46.49;52413.44;5023341;28;19929;-76
2022/09/28 12:30:15;;;;;;;;;;;;;;;-144.99;47.16;52374.72;5016315;28;20300;-76
2022/09/28 12:32:42;;;;;;;;;;;;;;;-144.99;47.30;52415.47;5018654;28;19929;-76
2022/09/28 12:35:13;;;;;;;;;;;;;;;-144.99;47.01;52435.88;5031108;28;19929;-76